createdAt,value
2019-06-01T00:00:58.011Z,18.30
2019-06-01T00:03:27.387Z,18.20
2019-06-01T00:05:56.874Z,18.10
2019-06-01T00:08:26.245Z,18.20
2019-06-01T00:10:55.654Z,18.10
2019-06-01T00:13:25.075Z,18.10
2019-06-01T00:15:54.446Z,18.10
2019-06-01T00:18:23.935Z,18.10
2019-06-01T00:20:54.790Z,18.00
2019-06-01T00:23:24.455Z,17.90
2019-06-01T00:25:53.866Z,17.90
2019-06-01T00:28:23.450Z,17.90
2019-06-01T00:30:52.897Z,17.90
2019-06-01T00:33:23.050Z,17.90
2019-06-01T00:35:52.483Z,17.80
2019-06-01T00:38:21.865Z,17.80
2019-06-01T00:40:52.042Z,17.80
2019-06-01T00:43:21.576Z,17.80
2019-06-01T00:45:51.030Z,17.80
2019-06-01T00:48:20.535Z,17.80
2019-06-01T00:50:51.008Z,17.70
2019-06-01T00:53:20.474Z,17.70
2019-06-01T00:55:51.823Z,17.70
2019-06-01T00:58:21.226Z,17.70
2019-06-01T01:00:51.989Z,17.70
2019-06-01T01:03:22.917Z,17.60
2019-06-01T01:05:52.727Z,17.60
2019-06-01T01:08:22.207Z,17.50
2019-06-01T01:10:52.998Z,17.50
2019-06-01T01:13:24.590Z,17.50
2019-06-01T01:15:54.091Z,17.50
2019-06-01T01:18:23.546Z,17.50
2019-06-01T01:20:54.757Z,17.40
2019-06-01T01:23:24.192Z,17.40
2019-06-01T01:25:54.566Z,17.40
2019-06-01T01:28:25.313Z,17.40
2019-06-01T01:31:06.534Z,17.40
2019-06-01T01:33:27.642Z,17.40
2019-06-01T01:35:58.093Z,17.40
2019-06-01T01:38:27.600Z,17.30
2019-06-01T01:40:59.235Z,17.30
2019-06-01T01:43:28.239Z,17.30
2019-06-01T01:45:58.973Z,17.30
2019-06-01T01:48:29.763Z,17.30
2019-06-01T01:50:59.190Z,17.30
2019-06-01T01:53:28.765Z,17.30
2019-06-01T01:55:59.062Z,17.30
2019-06-01T01:58:28.518Z,17.20
2019-06-01T02:00:58.561Z,17.30
2019-06-01T02:03:29.254Z,17.20
2019-06-01T02:05:59.965Z,17.20
2019-06-01T02:08:30.550Z,17.20
2019-06-01T02:10:59.868Z,17.10
2019-06-01T02:13:29.260Z,17.10
2019-06-01T02:16:00.402Z,17.10
2019-06-01T02:18:29.796Z,17.00
2019-06-01T02:21:00.389Z,17.00
2019-06-01T02:23:29.980Z,17.00
2019-06-01T02:25:59.464Z,16.90
2019-06-01T02:28:29.019Z,16.90
2019-06-01T02:30:59.765Z,16.70
2019-06-01T02:33:29.595Z,16.60
2019-06-01T02:36:00.614Z,16.40
2019-06-01T02:38:30.718Z,16.40
2019-06-01T02:41:01.219Z,16.30
2019-06-01T02:43:50.762Z,16.30
2019-06-01T02:46:20.250Z,16.30
2019-06-01T02:48:49.679Z,16.20
2019-06-01T02:51:20.412Z,16.10
2019-06-01T02:53:49.745Z,16.20
2019-06-01T02:56:19.249Z,16.10
2019-06-01T02:58:49.049Z,16.10
2019-06-01T03:01:56.675Z,16.00
2019-06-01T03:04:16.162Z,15.90
2019-06-01T03:06:47.604Z,15.90
2019-06-01T03:09:20.081Z,15.80
2019-06-01T03:12:10.137Z,15.70
2019-06-01T03:14:42.071Z,15.70
2019-06-01T03:17:14.835Z,15.60
2019-06-01T03:19:46.662Z,15.60
2019-06-01T03:22:17.952Z,15.60
2019-06-01T03:24:49.559Z,15.60
2019-06-01T03:27:21.886Z,15.60
2019-06-01T03:29:56.661Z,15.60
2019-06-01T03:32:35.915Z,15.60
2019-06-01T03:34:57.211Z,15.60
2019-06-01T03:37:29.195Z,15.60
2019-06-01T03:39:59.117Z,15.50
2019-06-01T03:42:28.490Z,15.50
2019-06-01T03:44:58.262Z,15.60
2019-06-01T03:47:27.661Z,15.60
2019-06-01T03:49:57.054Z,15.50
2019-06-01T03:52:26.459Z,15.50
2019-06-01T03:54:55.826Z,15.50
2019-06-01T03:57:25.217Z,15.50
2019-06-01T03:59:54.678Z,15.50
2019-06-01T04:02:32.743Z,15.60
2019-06-01T04:04:56.292Z,15.60
2019-06-01T04:07:27.210Z,15.60
2019-06-01T04:09:56.596Z,15.60
2019-06-01T04:12:25.970Z,15.60
2019-06-01T04:14:55.503Z,15.60
2019-06-01T04:17:24.934Z,15.60
2019-06-01T04:19:54.283Z,15.80
2019-06-01T04:22:25.042Z,16.10
2019-06-01T04:25:14.879Z,16.70
2019-06-01T04:27:44.373Z,17.20
2019-06-01T04:30:14.028Z,17.80
2019-06-01T04:32:49.796Z,18.30
2019-06-01T04:35:14.602Z,18.80
2019-06-01T04:37:45.270Z,19.30
2019-06-01T04:40:15.107Z,19.70
2019-06-01T04:42:44.948Z,20.10
2019-06-01T04:45:14.449Z,20.40
2019-06-01T04:47:43.938Z,20.80
2019-06-01T04:50:14.797Z,21.10
2019-06-01T04:52:44.286Z,21.30
2019-06-01T04:55:15.053Z,21.60
2019-06-01T04:57:46.275Z,21.90
2019-06-01T05:00:25.687Z,22.20
2019-06-01T05:02:47.203Z,22.40
2019-06-01T05:05:18.651Z,22.70
2019-06-01T05:07:47.992Z,22.90
2019-06-01T05:10:17.459Z,23.20
2019-06-01T05:12:48.347Z,23.40
2019-06-01T05:15:19.228Z,23.70
2019-06-01T05:17:48.765Z,23.90
2019-06-01T05:20:18.306Z,24.20
2019-06-01T05:22:47.721Z,24.40
2019-06-01T05:25:17.252Z,24.70
2019-06-01T05:27:48.649Z,25.00
2019-06-01T05:30:18.607Z,25.20
2019-06-01T05:32:48.083Z,25.40
2019-06-01T05:35:18.019Z,25.60
2019-06-01T05:37:47.565Z,25.70
2019-06-01T05:40:17.220Z,25.60
2019-06-01T05:42:48.028Z,25.50
2019-06-01T05:45:19.182Z,25.60
2019-06-01T05:47:50.066Z,25.60
2019-06-01T05:50:22.736Z,25.60
2019-06-01T05:52:52.316Z,25.60
2019-06-01T05:55:22.978Z,25.60
2019-06-01T05:57:53.716Z,25.70
2019-06-01T06:00:44.789Z,26.00
2019-06-01T06:03:16.262Z,26.20
2019-06-01T06:05:45.388Z,26.50
2019-06-01T06:08:16.063Z,26.50
2019-06-01T06:10:45.791Z,26.60
2019-06-01T06:13:15.375Z,26.70
2019-06-01T06:15:46.104Z,26.80
2019-06-01T06:18:15.800Z,26.80
2019-06-01T06:20:45.338Z,26.80
2019-06-01T06:23:14.664Z,26.90
2019-06-01T06:25:44.171Z,26.90
2019-06-01T06:28:14.563Z,27.00
2019-06-01T06:30:44.058Z,27.30
2019-06-01T06:33:13.457Z,27.70
2019-06-01T06:35:42.901Z,27.90
2019-06-01T06:38:13.403Z,28.00
2019-06-01T06:40:43.075Z,28.10
2019-06-01T06:43:22.416Z,28.10
2019-06-01T06:45:44.071Z,28.30
2019-06-01T06:48:14.887Z,28.60
2019-06-01T06:50:44.599Z,28.80
2019-06-01T06:53:25.414Z,28.90
2019-06-01T06:55:45.170Z,29.10
2019-06-01T06:58:14.531Z,29.40
2019-06-01T07:00:43.893Z,29.60
2019-06-01T07:03:13.314Z,29.60
2019-06-01T07:05:42.822Z,29.80
2019-06-01T07:08:12.272Z,29.90
2019-06-01T07:10:41.749Z,30.00
2019-06-01T07:13:11.114Z,30.00
2019-06-01T07:15:40.519Z,29.90
2019-06-01T07:18:09.987Z,29.70
2019-06-01T07:20:39.414Z,29.50
2019-06-01T07:23:08.754Z,29.10
2019-06-01T07:25:38.240Z,28.40
2019-06-01T07:28:07.720Z,27.60
2019-06-01T07:30:49.674Z,26.90
2019-06-01T07:33:08.404Z,26.40
2019-06-01T07:35:37.841Z,26.10
2019-06-01T07:38:07.215Z,25.70
2019-06-01T07:40:36.639Z,25.70
2019-06-01T07:43:06.041Z,25.80
2019-06-01T07:45:35.955Z,26.20
2019-06-01T07:48:05.498Z,26.70
2019-06-01T07:50:34.842Z,27.20
2019-06-01T07:53:04.211Z,27.60
2019-06-01T07:55:33.878Z,27.80
2019-06-01T07:58:03.324Z,27.80
2019-06-01T08:00:34.162Z,27.40
2019-06-01T08:03:04.015Z,27.30
2019-06-01T08:05:33.474Z,27.10
2019-06-01T08:08:02.935Z,26.80
2019-06-01T08:10:32.427Z,26.70
2019-06-01T08:13:01.914Z,26.40
2019-06-01T08:15:31.869Z,26.10
2019-06-01T08:18:01.471Z,25.90
2019-06-01T08:20:32.147Z,25.70
2019-06-01T08:23:03.037Z,25.50
2019-06-01T08:25:33.730Z,25.30
2019-06-01T08:30:43.793Z,25.20
2019-06-01T08:33:13.232Z,25.10
2019-06-01T08:35:45.303Z,25.10
2019-06-01T08:38:14.747Z,25.00
2019-06-01T08:40:44.144Z,25.00
2019-06-01T08:43:13.696Z,24.90
2019-06-01T08:45:43.534Z,24.80
2019-06-01T08:48:13.537Z,24.80
2019-06-01T08:50:46.021Z,24.90
2019-06-01T08:53:15.299Z,24.90
2019-06-01T08:55:44.650Z,24.90
2019-06-01T08:58:14.080Z,24.90
2019-06-01T09:00:43.487Z,24.90
2019-06-01T09:03:12.910Z,24.90
2019-06-01T09:05:42.329Z,24.90
2019-06-01T09:08:11.683Z,24.90
2019-06-01T09:10:43.757Z,25.00
2019-06-01T09:13:13.129Z,25.00
2019-06-01T09:15:42.594Z,25.10
2019-06-01T09:18:11.939Z,25.10
2019-06-01T09:20:43.630Z,25.20
2019-06-01T09:23:13.078Z,25.20
2019-06-01T09:25:42.507Z,25.30
2019-06-01T09:28:13.063Z,25.40
2019-06-01T09:30:42.443Z,25.40
2019-06-01T09:33:11.867Z,25.50
2019-06-01T09:35:54.359Z,25.50
2019-06-01T09:38:12.429Z,25.60
2019-06-01T09:40:43.115Z,25.60
2019-06-01T09:43:12.744Z,25.60
2019-06-01T09:45:42.295Z,25.70
2019-06-01T09:48:11.782Z,25.70
2019-06-01T09:50:41.923Z,25.70
2019-06-01T09:53:11.335Z,25.70
2019-06-01T09:55:40.776Z,25.70
2019-06-01T09:58:10.250Z,25.80
2019-06-01T10:00:43.204Z,25.70
2019-06-01T10:03:12.479Z,25.70
2019-06-01T10:05:41.896Z,25.70
2019-06-01T10:08:11.344Z,25.70
2019-06-01T10:10:40.673Z,25.70
2019-06-01T10:13:10.067Z,25.60
2019-06-01T10:15:39.757Z,25.60
2019-06-01T10:18:09.165Z,25.50
2019-06-01T10:20:39.197Z,25.40
2019-06-01T10:23:08.807Z,25.30
2019-06-01T10:25:38.631Z,25.30
2019-06-01T10:28:08.145Z,25.20
2019-06-01T10:30:37.928Z,25.20
2019-06-01T10:33:07.597Z,25.00
2019-06-01T10:35:37.011Z,25.00
2019-06-01T10:38:07.553Z,25.00
2019-06-01T10:40:39.315Z,25.00
2019-06-01T10:43:09.212Z,24.90
2019-06-01T10:45:39.878Z,24.90
2019-06-01T10:48:09.349Z,24.90
2019-06-01T10:50:40.476Z,24.90
2019-06-01T10:53:10.335Z,24.90
2019-06-01T10:55:40.326Z,24.90
2019-06-01T10:58:09.828Z,24.80
2019-06-01T11:00:46.686Z,24.80
2019-06-01T11:03:10.342Z,24.80
2019-06-01T11:05:40.521Z,24.80
2019-06-01T11:08:10.273Z,24.80
2019-06-01T11:10:40.947Z,24.70
2019-06-01T11:13:10.453Z,24.70
2019-06-01T11:15:41.193Z,24.70
2019-06-01T11:18:10.577Z,24.70
2019-06-01T11:20:39.953Z,24.60
2019-06-01T11:23:09.414Z,24.70
2019-06-01T11:25:39.624Z,24.60
2019-06-01T11:28:09.156Z,24.60
2019-06-01T11:30:39.851Z,24.50
2019-06-01T11:33:09.534Z,24.50
2019-06-01T11:35:39.177Z,24.50
2019-06-01T11:38:08.747Z,24.50
2019-06-01T11:40:38.628Z,24.50
2019-06-01T11:43:08.016Z,24.50
2019-06-01T11:45:38.740Z,24.40
2019-06-01T11:48:08.237Z,24.50
2019-06-01T11:50:38.728Z,24.50
2019-06-01T11:53:08.466Z,24.50
2019-06-01T11:55:39.227Z,24.50
2019-06-01T11:58:08.710Z,24.40
2019-06-01T12:00:39.275Z,24.50
2019-06-01T12:03:08.994Z,24.50
2019-06-01T12:05:39.863Z,24.50
2019-06-01T12:08:09.415Z,24.50
2019-06-01T12:10:39.013Z,24.60
2019-06-01T12:13:08.570Z,24.60
2019-06-01T12:15:38.463Z,24.60
2019-06-01T12:18:07.947Z,24.60
2019-06-01T12:20:38.542Z,24.60
2019-06-01T12:23:08.407Z,24.60
2019-06-01T12:25:38.212Z,24.60
2019-06-01T12:28:07.805Z,24.60
2019-06-01T12:30:37.495Z,24.60
2019-06-01T12:33:07.115Z,24.60
2019-06-01T12:35:37.796Z,24.60
2019-06-01T12:38:07.435Z,24.60
2019-06-01T12:40:36.899Z,24.60
2019-06-01T12:43:06.222Z,24.70
2019-06-01T12:45:35.692Z,24.60
2019-06-01T12:48:05.273Z,24.70
2019-06-01T12:50:34.653Z,24.70
2019-06-01T12:53:04.090Z,24.60
2019-06-01T12:55:33.437Z,24.70
2019-06-01T12:58:02.967Z,24.70
2019-06-01T13:00:32.383Z,24.70
2019-06-01T13:03:07.440Z,24.70
2019-06-01T13:05:32.925Z,24.80
2019-06-01T13:08:03.135Z,24.80
2019-06-01T13:10:32.617Z,24.70
2019-06-01T13:13:02.057Z,24.80
2019-06-01T13:15:31.811Z,24.70
2019-06-01T13:18:01.254Z,24.70
2019-06-01T13:20:31.840Z,24.70
2019-06-01T13:23:01.334Z,24.70
2019-06-01T13:25:30.765Z,24.60
2019-06-01T13:28:00.131Z,24.60
2019-06-01T13:30:29.536Z,24.60
2019-06-01T13:32:59.083Z,24.60
2019-06-01T13:35:28.503Z,24.60
2019-06-01T13:38:10.475Z,24.60
2019-06-01T13:40:28.946Z,24.60
2019-06-01T13:42:58.348Z,24.60
2019-06-01T13:45:27.895Z,24.60
2019-06-01T13:47:57.275Z,24.60
2019-06-01T13:50:26.851Z,24.60
2019-06-01T13:52:56.338Z,24.60
2019-06-01T13:55:25.753Z,24.60
2019-06-01T13:57:56.318Z,24.60
2019-06-01T14:00:30.687Z,24.50
2019-06-01T14:02:57.744Z,24.50
2019-06-01T14:05:27.442Z,24.50
2019-06-01T14:07:57.172Z,24.50
2019-06-01T14:10:26.647Z,24.50
2019-06-01T14:12:55.975Z,24.50
2019-06-01T14:15:25.367Z,24.50
2019-06-01T14:17:54.772Z,24.50
2019-06-01T14:20:24.185Z,24.50
2019-06-01T14:22:54.088Z,24.50
2019-06-01T14:25:23.708Z,24.40
2019-06-01T14:27:54.330Z,24.50
2019-06-01T14:30:24.272Z,24.50
2019-06-01T14:32:54.435Z,24.60
2019-06-01T14:35:23.956Z,24.60
2019-06-01T14:37:55.142Z,24.60
2019-06-01T14:40:24.802Z,24.60
2019-06-01T14:42:55.746Z,24.60
2019-06-01T14:45:25.690Z,24.70
2019-06-01T14:47:55.591Z,24.70
2019-06-01T14:50:25.097Z,24.70
2019-06-01T14:52:55.650Z,24.70
2019-06-01T14:55:26.971Z,24.70
2019-06-01T14:57:56.363Z,24.80
2019-06-01T15:00:26.111Z,24.80
2019-06-01T15:02:56.362Z,24.80
2019-06-01T15:05:26.037Z,24.80
2019-06-01T15:07:57.045Z,24.90
2019-06-01T15:10:26.705Z,24.90
2019-06-01T15:13:00.849Z,24.90
2019-06-01T15:15:27.511Z,24.90
2019-06-01T15:17:57.574Z,24.90
2019-06-01T15:20:27.075Z,24.90
2019-06-01T15:22:56.424Z,24.90
2019-06-01T15:25:25.776Z,24.90
2019-06-01T15:27:55.242Z,24.90
2019-06-01T15:30:25.205Z,24.90
2019-06-01T15:32:54.661Z,25.00
2019-06-01T15:35:24.126Z,25.00
2019-06-01T15:37:57.170Z,24.90
2019-06-01T15:40:24.688Z,24.90
2019-06-01T15:42:55.164Z,24.90
2019-06-01T15:45:25.038Z,24.80
2019-06-01T15:47:55.560Z,24.90
2019-06-01T15:50:25.073Z,24.80
2019-06-01T15:52:54.984Z,24.90
2019-06-01T15:55:24.647Z,24.90
2019-06-01T15:57:54.290Z,24.80
2019-06-01T16:00:24.557Z,24.80
2019-06-01T16:02:54.789Z,24.90
2019-06-01T16:05:24.812Z,24.90
2019-06-01T16:07:55.084Z,24.90
2019-06-01T16:10:24.627Z,24.90
2019-06-01T16:12:55.247Z,25.00
2019-06-01T16:15:24.876Z,25.00
2019-06-01T16:17:54.279Z,25.10
2019-06-01T16:20:23.637Z,25.20
2019-06-01T16:22:53.923Z,25.20
2019-06-01T16:25:23.287Z,25.20
2019-06-01T16:27:52.677Z,25.30
2019-06-01T16:30:22.089Z,25.20
2019-06-01T16:32:51.947Z,25.20
2019-06-01T16:35:21.366Z,25.30
2019-06-01T16:37:52.034Z,25.20
2019-06-01T16:40:21.561Z,25.20
2019-06-01T16:42:51.046Z,25.20
2019-06-01T16:45:20.427Z,25.10
2019-06-01T16:47:50.985Z,25.10
2019-06-01T16:50:20.566Z,25.00
2019-06-01T16:52:50.019Z,25.00
2019-06-01T16:55:21.356Z,25.00
2019-06-01T16:57:50.968Z,25.00
2019-06-01T17:00:24.319Z,25.00
2019-06-01T17:02:56.643Z,25.00
2019-06-01T17:05:26.392Z,25.00
2019-06-01T17:07:56.631Z,25.00
2019-06-01T17:10:26.893Z,25.00
2019-06-01T17:12:56.860Z,25.00
2019-06-01T17:15:26.488Z,25.00
2019-06-01T17:17:57.250Z,25.00
2019-06-01T17:21:01.453Z,25.00
2019-06-01T17:23:33.161Z,25.00
2019-06-01T17:26:02.147Z,25.00
2019-06-01T17:28:31.836Z,25.00
2019-06-01T17:31:02.313Z,25.00
2019-06-01T17:33:32.897Z,25.00
2019-06-01T17:36:02.806Z,24.90
2019-06-01T17:38:34.048Z,24.90
2019-06-01T17:41:04.254Z,24.90
2019-06-01T17:43:34.392Z,24.80
2019-06-01T17:46:05.324Z,24.90
2019-06-01T17:48:34.859Z,24.80
2019-06-01T17:51:04.717Z,24.80
2019-06-01T17:53:34.106Z,24.80
2019-06-01T17:56:03.951Z,24.80
2019-06-01T17:58:33.542Z,24.70
2019-06-01T18:01:04.243Z,24.60
2019-06-01T18:03:34.127Z,24.60
2019-06-01T18:06:03.738Z,24.60
2019-06-01T18:08:33.224Z,24.50
2019-06-01T18:11:03.863Z,24.50
2019-06-01T18:13:33.445Z,24.50
2019-06-01T18:16:03.381Z,24.40
2019-06-01T18:18:33.965Z,24.40
2019-06-01T18:21:04.171Z,24.30
2019-06-01T18:23:34.737Z,24.20
2019-06-01T18:26:05.091Z,24.20
2019-06-01T18:28:34.630Z,24.20
2019-06-01T18:31:04.557Z,24.10
2019-06-01T18:33:36.650Z,24.10
2019-06-01T18:36:07.445Z,24.10
2019-06-01T18:38:37.050Z,24.00
2019-06-01T18:41:14.614Z,23.90
2019-06-01T18:43:37.713Z,23.90
2019-06-01T18:46:08.091Z,23.90
2019-06-01T18:48:37.621Z,23.80
2019-06-01T18:51:08.150Z,23.80
2019-06-01T18:53:37.649Z,23.70
2019-06-01T18:56:08.200Z,23.70
2019-06-01T18:58:38.018Z,23.60
2019-06-01T19:01:08.420Z,23.60
2019-06-01T19:03:37.958Z,23.60
2019-06-01T19:06:09.560Z,23.60
2019-06-01T19:08:39.023Z,23.50
2019-06-01T19:11:18.479Z,23.50
2019-06-01T19:13:51.540Z,23.40
2019-06-01T19:16:20.962Z,23.40
2019-06-01T19:18:50.335Z,23.30
2019-06-01T19:21:19.735Z,23.30
2019-06-01T19:23:49.223Z,23.20
2019-06-01T19:26:18.705Z,23.10
2019-06-01T19:28:48.150Z,23.10
2019-06-01T19:31:36.704Z,23.00
2019-06-01T19:34:06.843Z,22.90
2019-06-01T19:36:38.632Z,22.80
2019-06-01T19:39:28.834Z,22.80
2019-06-01T19:41:58.191Z,22.70
2019-06-01T19:44:27.594Z,22.60
2019-06-01T19:46:58.103Z,22.60
2019-06-01T19:49:27.528Z,22.50
2019-06-01T19:51:56.907Z,22.50
2019-06-01T19:54:26.392Z,22.40
2019-06-01T19:56:55.826Z,22.40
2019-06-01T19:59:25.151Z,22.30
2019-06-01T20:01:54.621Z,22.30
2019-06-01T20:04:24.130Z,22.20
2019-06-01T20:06:53.459Z,22.20
2019-06-01T20:09:24.069Z,22.40
2019-06-01T20:12:02.005Z,22.20
2019-06-01T20:14:26.718Z,22.20
2019-06-01T20:16:56.213Z,22.10
2019-06-01T20:19:25.747Z,22.10
2019-06-01T20:21:55.264Z,22.10
2019-06-01T20:24:25.873Z,22.00
2019-06-01T20:26:55.429Z,22.10
2019-06-01T20:29:25.137Z,22.00
2019-06-01T20:31:56.278Z,22.00
2019-06-01T20:34:25.681Z,22.00
2019-06-01T20:36:55.262Z,21.90
2019-06-01T20:39:24.740Z,21.90
2019-06-01T20:41:54.535Z,21.90
2019-06-01T20:44:23.994Z,21.90
2019-06-01T20:46:53.400Z,21.90
2019-06-01T20:49:22.774Z,21.80
2019-06-01T20:51:52.178Z,21.80
2019-06-01T20:54:23.470Z,21.80
2019-06-01T20:56:52.905Z,21.80
2019-06-01T20:59:23.472Z,21.80
2019-06-01T21:01:55.000Z,21.70
2019-06-01T21:04:24.408Z,21.70
2019-06-01T21:06:53.915Z,21.70
2019-06-01T21:09:24.359Z,21.70
2019-06-01T21:11:55.695Z,21.70
2019-06-01T21:14:25.612Z,21.70
2019-06-01T21:16:55.405Z,21.70
2019-06-01T21:19:26.659Z,21.70
2019-06-01T21:21:56.115Z,21.80
2019-06-01T21:24:25.627Z,21.80
2019-06-01T21:26:55.155Z,21.80
2019-06-01T21:29:25.152Z,21.80
2019-06-01T21:31:54.744Z,21.70
2019-06-01T21:34:25.586Z,21.70
2019-06-01T21:36:56.261Z,21.70
2019-06-01T21:39:25.606Z,21.70
2019-06-01T21:41:55.121Z,21.60
2019-06-01T21:44:25.673Z,21.70
2019-06-01T21:46:56.307Z,21.60
2019-06-01T21:49:25.923Z,21.60
2019-06-01T21:51:55.391Z,21.70
2019-06-01T21:54:24.806Z,21.70
2019-06-01T21:56:54.288Z,21.70
2019-06-01T21:59:24.916Z,21.70
2019-06-01T22:01:54.460Z,21.70
2019-06-01T22:04:25.347Z,21.60
2019-06-01T22:06:54.939Z,21.60
2019-06-01T22:09:25.293Z,21.50
2019-06-01T22:11:54.987Z,21.50
2019-06-01T22:14:26.154Z,21.40
2019-06-01T22:16:55.504Z,21.40
2019-06-01T22:19:25.857Z,21.40
2019-06-01T22:21:55.499Z,21.30
2019-06-01T22:24:26.542Z,21.20
2019-06-01T22:26:57.325Z,21.10
2019-06-01T22:29:26.711Z,21.10
2019-06-01T22:31:56.205Z,21.00
2019-06-01T22:34:26.860Z,21.00
2019-06-01T22:36:56.754Z,20.90
2019-06-01T22:39:26.933Z,20.90
2019-06-01T22:41:56.503Z,20.80
2019-06-01T22:44:26.218Z,20.80
2019-06-01T22:46:56.961Z,20.70
2019-06-01T22:49:26.856Z,20.70
2019-06-01T22:51:57.539Z,20.70
2019-06-01T22:54:29.256Z,20.70
2019-06-01T22:56:58.947Z,20.70
2019-06-01T22:59:28.718Z,20.60
2019-06-01T23:01:58.427Z,20.60
2019-06-01T23:04:29.183Z,20.60
2019-06-01T23:06:59.132Z,20.50
2019-06-01T23:09:29.708Z,20.50
2019-06-01T23:11:59.199Z,20.50
2019-06-01T23:14:29.495Z,20.50
2019-06-01T23:16:59.167Z,20.50
2019-06-01T23:19:29.835Z,20.50
2019-06-01T23:22:00.464Z,20.50
2019-06-01T23:24:30.317Z,20.50
2019-06-01T23:26:59.862Z,20.50
2019-06-01T23:29:30.229Z,20.50
2019-06-01T23:31:59.798Z,20.50
2019-06-01T23:34:30.966Z,20.50
2019-06-01T23:37:01.601Z,20.50
2019-06-01T23:39:31.035Z,20.50
2019-06-01T23:42:00.423Z,20.50
2019-06-01T23:44:32.486Z,20.40
2019-06-01T23:47:02.050Z,20.40
2019-06-01T23:49:31.423Z,20.40
2019-06-01T23:52:00.875Z,20.40
2019-06-01T23:54:32.447Z,20.40
2019-06-01T23:57:02.158Z,20.40
2019-06-01T23:59:32.514Z,20.40
